createdAt,value
2017-09-05T00:00:28.377Z,0
2017-09-05T00:01:28.364Z,0
2017-09-05T00:02:28.333Z,0
2017-09-05T00:03:28.310Z,0
2017-09-05T00:04:28.006Z,0
2017-09-05T00:05:27.989Z,0
2017-09-05T00:06:28.073Z,0
2017-09-05T00:07:27.698Z,0
2017-09-05T00:08:28.241Z,0
2017-09-05T00:09:28.225Z,0
2017-09-05T00:10:27.593Z,0
2017-09-05T00:11:27.359Z,0
2017-09-05T00:12:27.702Z,0
2017-09-05T00:13:27.257Z,0
2017-09-05T00:14:27.849Z,0
2017-09-05T00:15:27.842Z,0
2017-09-05T00:16:27.799Z,0
2017-09-05T00:17:27.789Z,0
2017-09-05T00:18:27.890Z,0
2017-09-05T00:19:27.563Z,0
2017-09-05T00:20:27.852Z,0
2017-09-05T00:21:27.817Z,0
2017-09-05T00:22:27.766Z,0
2017-09-05T00:23:27.719Z,0
2017-09-05T00:24:27.429Z,0
2017-09-05T00:25:27.339Z,0
2017-09-05T00:26:27.951Z,0
2017-09-05T00:27:27.749Z,0
2017-09-05T00:28:27.929Z,0
2017-09-05T00:29:26.961Z,0
2017-09-05T00:30:27.331Z,0
2017-09-05T00:31:27.882Z,0
2017-09-05T00:32:27.586Z,0
2017-09-05T00:33:27.222Z,0
2017-09-05T00:34:27.202Z,0
2017-09-05T00:35:27.493Z,0
2017-09-05T00:36:27.528Z,0
2017-09-05T00:37:27.794Z,0
2017-09-05T00:38:27.770Z,0
2017-09-05T00:39:27.134Z,0
2017-09-05T00:40:27.109Z,0
2017-09-05T00:41:27.470Z,0
2017-09-05T00:42:27.700Z,0
2017-09-05T00:43:27.819Z,0
2017-09-05T00:44:26.418Z,0
2017-09-05T00:45:26.707Z,0
2017-09-05T00:46:26.734Z,0
2017-09-05T00:47:27.308Z,0
2017-09-05T00:48:27.674Z,0
2017-09-05T00:49:26.965Z,0
2017-09-05T00:50:26.961Z,0
2017-09-05T00:51:27.280Z,0
2017-09-05T00:52:26.917Z,0
2017-09-05T00:53:26.922Z,0
2017-09-05T00:54:26.562Z,0
2017-09-05T00:55:26.563Z,0
2017-09-05T00:56:27.480Z,0
2017-09-05T00:57:26.863Z,0
2017-09-05T00:58:26.830Z,0
2017-09-05T00:59:27.426Z,0
2017-09-05T01:00:26.839Z,0
2017-09-05T01:01:27.093Z,0
2017-09-05T01:02:27.080Z,0
2017-09-05T01:03:26.430Z,0
2017-09-05T01:04:26.803Z,0
2017-09-05T01:05:26.732Z,0
2017-09-05T01:06:27.090Z,0
2017-09-05T01:07:27.312Z,0
2017-09-05T01:08:26.740Z,0
2017-09-05T01:09:26.625Z,0
2017-09-05T01:10:26.992Z,0
2017-09-05T01:11:26.603Z,0
2017-09-05T01:12:27.261Z,0
2017-09-05T01:13:26.569Z,0
2017-09-05T01:14:26.634Z,0
2017-09-05T01:15:27.151Z,0
2017-09-05T01:16:26.689Z,0
2017-09-05T01:17:27.201Z,0
2017-09-05T01:18:26.843Z,0
2017-09-05T01:19:26.487Z,0
2017-09-05T01:20:26.512Z,0
2017-09-05T01:21:26.553Z,0
2017-09-05T01:22:26.847Z,0
2017-09-05T01:23:26.714Z,0
2017-09-05T01:24:26.779Z,0
2017-09-05T01:25:26.569Z,0
2017-09-05T01:26:26.666Z,0
2017-09-05T01:27:27.003Z,0
2017-09-05T01:28:26.365Z,0
2017-09-05T01:29:26.338Z,0
2017-09-05T01:30:26.387Z,0
2017-09-05T01:31:26.570Z,0
2017-09-05T01:32:26.589Z,0
2017-09-05T01:33:26.593Z,0
2017-09-05T01:34:26.549Z,0
2017-09-05T01:35:26.629Z,0
2017-09-05T01:36:26.213Z,0
2017-09-05T01:37:26.514Z,0
2017-09-05T01:38:26.552Z,0
2017-09-05T01:39:26.478Z,0
2017-09-05T01:40:26.782Z,0
2017-09-05T01:41:26.118Z,0
2017-09-05T01:42:26.111Z,0
2017-09-05T01:43:26.400Z,0
2017-09-05T01:44:26.711Z,0
2017-09-05T01:45:26.424Z,0
2017-09-05T01:46:26.648Z,0
2017-09-05T01:47:26.699Z,0
2017-09-05T01:48:26.321Z,0
2017-09-05T01:49:26.372Z,0
2017-09-05T01:50:26.033Z,0
2017-09-05T01:51:26.273Z,0
2017-09-05T01:52:26.258Z,0
2017-09-05T01:53:26.550Z,0
2017-09-05T01:54:25.939Z,0
2017-09-05T01:55:26.219Z,0
2017-09-05T01:56:26.516Z,0
2017-09-05T01:57:25.933Z,0
2017-09-05T01:58:26.471Z,0
2017-09-05T01:59:26.483Z,0
2017-09-05T02:00:26.428Z,0
2017-09-05T02:01:26.461Z,0
2017-09-05T02:02:26.119Z,0
2017-09-05T02:03:26.112Z,0
2017-09-05T02:04:26.397Z,0
2017-09-05T02:05:25.729Z,0
2017-09-05T02:06:26.040Z,0
2017-09-05T02:07:26.042Z,0
2017-09-05T02:08:26.321Z,0
2017-09-05T02:09:25.383Z,0
2017-09-05T02:10:26.274Z,0
2017-09-05T02:11:26.291Z,0
2017-09-05T02:12:25.685Z,0
2017-09-05T02:13:25.913Z,0
2017-09-05T02:14:25.912Z,0
2017-09-05T02:15:25.897Z,0
2017-09-05T02:16:25.953Z,0
2017-09-05T02:17:25.842Z,0
2017-09-05T02:18:25.542Z,0
2017-09-05T02:19:25.633Z,0
2017-09-05T02:20:25.821Z,0
2017-09-05T02:21:26.126Z,0
2017-09-05T02:22:25.765Z,0
2017-09-05T02:23:25.761Z,0
2017-09-05T02:24:25.728Z,0
2017-09-05T02:25:26.028Z,0
2017-09-05T02:26:25.704Z,0
2017-09-05T02:27:26.013Z,0
2017-09-05T02:28:25.965Z,0
2017-09-05T02:29:25.647Z,0
2017-09-05T02:30:25.958Z,0
2017-09-05T02:31:25.711Z,0
2017-09-05T02:32:25.296Z,0
2017-09-05T02:33:25.910Z,0
2017-09-05T02:34:24.944Z,0
2017-09-05T02:35:25.781Z,0
2017-09-05T02:36:25.224Z,0
2017-09-05T02:37:25.523Z,0
2017-09-05T02:38:25.521Z,0
2017-09-05T02:39:24.864Z,0
2017-09-05T02:40:25.481Z,0
2017-09-05T02:41:25.173Z,0
2017-09-05T02:42:25.125Z,0
2017-09-05T02:43:25.486Z,0
2017-09-05T02:44:24.789Z,0
2017-09-05T02:45:25.073Z,0
2017-09-05T02:46:25.383Z,0
2017-09-05T02:47:25.363Z,0
2017-09-05T02:48:25.343Z,0
2017-09-05T02:49:25.001Z,0
2017-09-05T02:50:24.989Z,0
2017-09-05T02:51:24.972Z,0
2017-09-05T02:52:24.964Z,0
2017-09-05T02:53:24.628Z,0
2017-09-05T02:54:25.540Z,0
2017-09-05T02:55:24.920Z,0
2017-09-05T02:56:24.899Z,0
2017-09-05T02:57:24.571Z,0
2017-09-05T02:58:24.552Z,0
2017-09-05T02:59:24.841Z,0
2017-09-05T03:00:24.840Z,0
2017-09-05T03:01:25.121Z,0
2017-09-05T03:02:24.791Z,0
2017-09-05T03:03:24.910Z,0
2017-09-05T03:04:25.383Z,0
2017-09-05T03:05:25.367Z,0
2017-09-05T03:06:25.051Z,0
2017-09-05T03:07:25.321Z,0
2017-09-05T03:08:25.300Z,0
2017-09-05T03:09:24.658Z,0
2017-09-05T03:10:24.659Z,0
2017-09-05T03:11:24.310Z,0
2017-09-05T03:12:25.271Z,0
2017-09-05T03:13:24.929Z,0
2017-09-05T03:14:24.921Z,0
2017-09-05T03:15:24.902Z,0
2017-09-05T03:16:24.253Z,0
2017-09-05T03:17:25.191Z,0
2017-09-05T03:18:25.160Z,0
2017-09-05T03:19:25.150Z,0
2017-09-05T03:20:24.814Z,0
2017-09-05T03:21:24.472Z,0
2017-09-05T03:22:24.459Z,0
2017-09-05T03:23:24.766Z,0
2017-09-05T03:24:24.121Z,0
2017-09-05T03:25:24.418Z,0
2017-09-05T03:26:24.729Z,0
2017-09-05T03:27:24.702Z,0
2017-09-05T03:28:24.732Z,0
2017-09-05T03:29:25.033Z,0
2017-09-05T03:30:24.031Z,0
2017-09-05T03:31:24.930Z,0
2017-09-05T03:32:25.027Z,0
2017-09-05T03:33:24.599Z,0
2017-09-05T03:34:24.602Z,0
2017-09-05T03:35:24.300Z,0
2017-09-05T03:36:24.600Z,0
2017-09-05T03:37:24.830Z,0
2017-09-05T03:38:23.981Z,0
2017-09-05T03:39:24.178Z,0
2017-09-05T03:40:24.518Z,0
2017-09-05T03:41:24.160Z,0
2017-09-05T03:42:24.543Z,0
2017-09-05T03:43:24.327Z,0
2017-09-05T03:44:24.108Z,0
2017-09-05T03:45:24.448Z,0
2017-09-05T03:46:24.084Z,0
2017-09-05T03:47:24.709Z,0
2017-09-05T03:48:24.051Z,0
2017-09-05T03:49:24.021Z,0
2017-09-05T03:50:24.003Z,0
2017-09-05T03:51:24.022Z,0
2017-09-05T03:52:23.988Z,0
2017-09-05T03:53:23.962Z,0
2017-09-05T03:54:23.965Z,0
2017-09-05T03:55:24.657Z,0
2017-09-05T03:56:24.211Z,0
2017-09-05T03:57:24.191Z,0
2017-09-05T03:58:24.189Z,0
2017-09-05T03:59:23.900Z,0
2017-09-05T04:00:23.838Z,0
2017-09-05T04:01:24.129Z,0
2017-09-05T04:02:23.872Z,0
2017-09-05T04:03:24.093Z,0
2017-09-05T04:04:24.129Z,0
2017-09-05T04:05:24.440Z,0
2017-09-05T04:06:24.110Z,0
2017-09-05T04:07:23.403Z,0
2017-09-05T04:08:23.706Z,0
2017-09-05T04:09:24.060Z,0
2017-09-05T04:10:24.309Z,0
2017-09-05T04:11:23.981Z,0
2017-09-05T04:12:24.335Z,0
2017-09-05T04:13:24.289Z,0
2017-09-05T04:14:23.598Z,0
2017-09-05T04:15:23.920Z,0
2017-09-05T04:16:24.264Z,0
2017-09-05T04:17:23.860Z,0
2017-09-05T04:18:23.860Z,0
2017-09-05T04:19:24.169Z,0
2017-09-05T04:20:23.834Z,0
2017-09-05T04:21:23.540Z,0
2017-09-05T04:22:24.092Z,0
2017-09-05T04:23:23.760Z,0
2017-09-05T04:24:24.140Z,0
2017-09-05T04:25:23.850Z,0
2017-09-05T04:26:23.789Z,0
2017-09-05T04:27:23.786Z,0
2017-09-05T04:28:23.712Z,0
2017-09-05T04:29:23.782Z,0
2017-09-05T04:30:23.936Z,0
2017-09-05T04:31:23.338Z,0
2017-09-05T04:32:24.032Z,0
2017-09-05T04:33:23.291Z,0
2017-09-05T04:34:23.901Z,0
2017-09-05T04:35:23.891Z,0
2017-09-05T04:36:23.550Z,0
2017-09-05T04:37:23.209Z,0
2017-09-05T04:38:23.310Z,0
2017-09-05T04:39:23.502Z,0
2017-09-05T04:40:23.484Z,0
2017-09-05T04:41:23.471Z,0
2017-09-05T04:42:23.464Z,0
2017-09-05T04:43:23.138Z,0
2017-09-05T04:44:22.799Z,0
2017-09-05T04:45:23.706Z,0
2017-09-05T04:46:23.400Z,0
2017-09-05T04:47:22.751Z,0
2017-09-05T04:48:23.353Z,0
2017-09-05T04:49:23.646Z,0
2017-09-05T04:50:23.329Z,0
2017-09-05T04:51:23.299Z,0
2017-09-05T04:52:23.589Z,0
2017-09-05T04:53:23.572Z,0
2017-09-05T04:54:23.550Z,0
2017-09-05T04:55:23.560Z,0
2017-09-05T04:56:23.220Z,0
2017-09-05T04:57:23.195Z,0
2017-09-05T04:58:23.560Z,0
2017-09-05T04:59:23.163Z,0
2017-09-05T05:00:23.149Z,0
2017-09-05T05:01:22.846Z,0
2017-09-05T05:02:23.101Z,0
2017-09-05T05:03:22.493Z,0
2017-09-05T05:04:23.411Z,0
2017-09-05T05:05:22.742Z,0
2017-09-05T05:06:23.054Z,5
2017-09-05T05:07:22.730Z,5
2017-09-05T05:08:23.035Z,5
2017-09-05T05:09:22.718Z,5
2017-09-05T05:10:22.711Z,5
2017-09-05T05:11:22.972Z,5
2017-09-05T05:12:22.986Z,5
2017-09-05T05:13:22.939Z,5
2017-09-05T05:14:22.290Z,5
2017-09-05T05:15:23.222Z,5
2017-09-05T05:16:22.586Z,5
2017-09-05T05:17:23.220Z,5
2017-09-05T05:18:22.547Z,5
2017-09-05T05:19:22.839Z,5
2017-09-05T05:20:22.818Z,5
2017-09-05T05:21:22.563Z,5
2017-09-05T05:22:22.471Z,5
2017-09-05T05:23:23.088Z,5
2017-09-05T05:24:22.763Z,5
2017-09-05T05:25:22.451Z,5
2017-09-05T05:26:22.719Z,5
2017-09-05T05:27:22.397Z,10
2017-09-05T05:28:22.683Z,10
2017-09-05T05:29:22.662Z,10
2017-09-05T05:30:22.342Z,10
2017-09-05T05:31:22.342Z,10
2017-09-05T05:32:22.311Z,10
2017-09-05T05:33:22.602Z,15
2017-09-05T05:34:22.920Z,15
2017-09-05T05:35:22.862Z,15
2017-09-05T05:36:22.884Z,15
2017-09-05T05:37:22.853Z,20
2017-09-05T05:38:22.021Z,20
2017-09-05T05:39:22.523Z,20
2017-09-05T05:40:22.179Z,20
2017-09-05T05:41:22.156Z,20
2017-09-05T05:42:22.209Z,20
2017-09-05T05:43:22.441Z,25
2017-09-05T05:44:22.409Z,25
2017-09-05T05:45:22.438Z,25
2017-09-05T05:46:22.710Z,25
2017-09-05T05:47:22.149Z,25
2017-09-05T05:48:22.406Z,25
2017-09-05T05:49:22.641Z,30
2017-09-05T05:50:22.622Z,30
2017-09-05T05:51:22.638Z,30
2017-09-05T05:52:22.312Z,30
2017-09-05T05:53:21.959Z,35
2017-09-05T05:54:22.020Z,35
2017-09-05T05:55:22.261Z,40
2017-09-05T05:56:22.287Z,40
2017-09-05T05:57:21.901Z,40
2017-09-05T05:58:21.932Z,40
2017-09-05T05:59:22.465Z,45
2017-09-05T06:00:21.835Z,45
2017-09-05T06:01:21.834Z,45
2017-09-05T06:02:21.867Z,45
2017-09-05T06:03:21.796Z,40
2017-09-05T06:04:21.771Z,40
2017-09-05T06:05:21.762Z,45
2017-09-05T06:06:22.160Z,50
2017-09-05T06:07:21.778Z,50
2017-09-05T06:08:22.319Z,45
2017-09-05T06:09:22.069Z,45
2017-09-05T06:10:21.677Z,40
2017-09-05T06:11:21.646Z,35
2017-09-05T06:12:21.992Z,30
2017-09-05T06:13:21.632Z,25
2017-09-05T06:14:22.341Z,25
2017-09-05T06:15:21.929Z,25
2017-09-05T06:16:21.889Z,25
2017-09-05T06:17:21.550Z,30
2017-09-05T06:18:21.937Z,30
2017-09-05T06:19:22.180Z,30
2017-09-05T06:20:22.149Z,30
2017-09-05T06:21:21.500Z,30
2017-09-05T06:22:21.847Z,25
2017-09-05T06:23:21.774Z,30
2017-09-05T06:24:21.782Z,30
2017-09-05T06:25:21.770Z,30
2017-09-05T06:26:21.110Z,30
2017-09-05T06:27:21.825Z,30
2017-09-05T06:28:21.690Z,30
2017-09-05T06:29:21.735Z,30
2017-09-05T06:30:21.348Z,30
2017-09-05T06:31:21.346Z,30
2017-09-05T06:32:21.671Z,25
2017-09-05T06:33:21.930Z,30
2017-09-05T06:34:21.298Z,30
2017-09-05T06:35:21.934Z,35
2017-09-05T06:36:21.900Z,40
2017-09-05T06:37:21.979Z,35
2017-09-05T06:38:21.525Z,40
2017-09-05T06:39:21.653Z,40
2017-09-05T06:40:21.820Z,40
2017-09-05T06:41:21.932Z,40
2017-09-05T06:42:21.794Z,40
2017-09-05T06:43:21.861Z,40
2017-09-05T06:44:21.458Z,40
2017-09-05T06:45:21.427Z,45
2017-09-05T06:46:21.473Z,50
2017-09-05T06:47:21.766Z,45
2017-09-05T06:48:21.769Z,50
2017-09-05T06:49:21.744Z,55
2017-09-05T06:50:21.419Z,55
2017-09-05T06:51:21.639Z,65
2017-09-05T06:52:21.071Z,80
2017-09-05T06:53:20.974Z,100
2017-09-05T06:54:21.361Z,105
2017-09-05T06:55:20.620Z,100
2017-09-05T06:56:20.969Z,100
2017-09-05T06:57:21.232Z,105
2017-09-05T06:58:21.540Z,110
2017-09-05T06:59:21.517Z,130
2017-09-05T07:00:21.565Z,120
2017-09-05T07:01:21.167Z,110
2017-09-05T07:02:21.509Z,115
2017-09-05T07:03:21.130Z,135
2017-09-05T07:04:21.549Z,150
2017-09-05T07:05:21.156Z,260
2017-09-05T07:06:21.085Z,145
2017-09-05T07:07:21.469Z,75
2017-09-05T07:08:21.399Z,70
2017-09-05T07:09:21.366Z,70
2017-09-05T07:10:21.463Z,65
2017-09-05T07:11:20.708Z,65
2017-09-05T07:12:21.318Z,60
2017-09-05T07:13:20.978Z,60
2017-09-05T07:14:20.643Z,65
2017-09-05T07:15:20.992Z,65
2017-09-05T07:16:20.984Z,70
2017-09-05T07:17:20.908Z,70
2017-09-05T07:18:21.260Z,75
2017-09-05T07:19:21.188Z,80
2017-09-05T07:20:21.178Z,80
2017-09-05T07:21:20.858Z,80
2017-09-05T07:22:20.583Z,85
2017-09-05T07:23:21.116Z,85
2017-09-05T07:24:21.146Z,90
2017-09-05T07:25:20.796Z,90
2017-09-05T07:26:21.003Z,90
2017-09-05T07:27:20.793Z,90
2017-09-05T07:28:20.451Z,90
2017-09-05T07:29:19.828Z,90
2017-09-05T07:30:20.728Z,90
2017-09-05T07:31:20.070Z,90
2017-09-05T07:32:20.670Z,95
2017-09-05T07:33:20.027Z,100
2017-09-05T07:34:21.006Z,110
2017-09-05T07:35:20.321Z,115
2017-09-05T07:36:20.298Z,115
2017-09-05T07:37:19.988Z,115
2017-09-05T07:38:20.643Z,120
2017-09-05T07:39:19.944Z,140
2017-09-05T07:40:20.866Z,105
2017-09-05T07:41:20.228Z,100
2017-09-05T07:42:20.851Z,100
2017-09-05T07:43:20.811Z,100
2017-09-05T07:44:20.495Z,95
2017-09-05T07:45:20.468Z,100
2017-09-05T07:46:20.165Z,105
2017-09-05T07:47:20.199Z,100
2017-09-05T07:48:20.429Z,105
2017-09-05T07:49:20.106Z,110
2017-09-05T07:50:20.707Z,115
2017-09-05T07:51:20.362Z,120
2017-09-05T07:52:20.378Z,130
2017-09-05T07:53:20.674Z,135
2017-09-05T07:54:20.653Z,140
2017-09-05T07:55:20.316Z,145
2017-09-05T07:56:20.332Z,155
2017-09-05T07:57:20.617Z,175
2017-09-05T07:58:20.328Z,175
2017-09-05T07:59:20.564Z,185
2017-09-05T08:00:19.948Z,190
2017-09-05T08:01:20.241Z,205
2017-09-05T08:02:20.779Z,220
2017-09-05T08:03:20.222Z,245
2017-09-05T08:04:20.489Z,255
2017-09-05T08:05:20.178Z,275
2017-09-05T08:06:19.585Z,260
2017-09-05T08:07:19.910Z,275
2017-09-05T08:08:20.729Z,315
2017-09-05T08:09:20.131Z,320
2017-09-05T08:10:19.469Z,335
2017-09-05T08:11:20.079Z,600
2017-09-05T08:12:19.778Z,450
2017-09-05T08:13:20.114Z,350
2017-09-05T08:14:20.046Z,380
2017-09-05T08:15:20.345Z,380
2017-09-05T08:16:19.708Z,370
2017-09-05T08:17:19.703Z,380
2017-09-05T08:18:19.977Z,460
2017-09-05T08:19:19.988Z,485
2017-09-05T08:20:19.956Z,505
2017-09-05T08:21:20.001Z,530
2017-09-05T08:22:19.618Z,460
2017-09-05T08:23:19.971Z,475
2017-09-05T08:24:20.249Z,510
2017-09-05T08:25:20.219Z,510
2017-09-05T08:26:19.270Z,440
2017-09-05T08:27:19.878Z,475
2017-09-05T08:28:19.939Z,665
2017-09-05T08:29:20.312Z,920
2017-09-05T08:30:19.559Z,550
2017-09-05T08:31:20.212Z,955
2017-09-05T08:32:19.856Z,830
2017-09-05T08:33:19.232Z,900
2017-09-05T08:34:19.399Z,800
2017-09-05T08:35:20.118Z,1090
2017-09-05T08:36:19.481Z,990
2017-09-05T08:37:19.171Z,1125
2017-09-05T08:38:19.470Z,930
2017-09-05T08:39:20.178Z,895
2017-09-05T08:40:19.771Z,745
2017-09-05T08:41:20.148Z,660
2017-09-05T08:42:19.461Z,675
2017-09-05T08:43:20.049Z,750
2017-09-05T08:44:19.420Z,685
2017-09-05T08:45:20.035Z,635
2017-09-05T08:46:19.761Z,320
2017-09-05T08:47:19.718Z,365
2017-09-05T08:48:19.739Z,640
2017-09-05T08:49:19.692Z,970
2017-09-05T08:50:19.707Z,910
2017-09-05T08:51:19.376Z,1170
2017-09-05T08:52:19.673Z,1225
2017-09-05T08:53:19.682Z,970
2017-09-05T08:54:19.957Z,1330
2017-09-05T08:55:19.646Z,715
2017-09-05T08:56:19.635Z,585
2017-09-05T08:57:19.629Z,650
2017-09-05T08:58:19.600Z,550
2017-09-05T08:59:19.299Z,885
2017-09-05T09:00:19.925Z,885
2017-09-05T09:01:19.289Z,890
2017-09-05T09:02:19.273Z,765
2017-09-05T09:03:19.284Z,1015
2017-09-05T09:04:19.339Z,1070
2017-09-05T09:05:18.628Z,900
2017-09-05T09:06:19.876Z,1060
2017-09-05T09:07:19.242Z,1255
2017-09-05T09:08:19.560Z,1115
2017-09-05T09:09:19.559Z,965
2017-09-05T09:10:19.331Z,695
2017-09-05T09:11:19.226Z,780
2017-09-05T09:12:19.549Z,535
2017-09-05T09:13:19.221Z,420
2017-09-05T09:14:19.773Z,400
2017-09-05T09:15:19.814Z,505
2017-09-05T09:16:19.498Z,530
2017-09-05T09:17:19.511Z,515
2017-09-05T09:18:19.810Z,520
2017-09-05T09:19:19.498Z,430
2017-09-05T09:20:19.871Z,465
2017-09-05T09:21:19.505Z,1100
2017-09-05T09:22:19.148Z,835
2017-09-05T09:23:19.149Z,765
2017-09-05T09:24:19.511Z,590
2017-09-05T09:25:19.147Z,650
2017-09-05T09:26:19.350Z,770
2017-09-05T09:27:19.740Z,825
2017-09-05T09:28:19.429Z,790
2017-09-05T09:29:19.149Z,765
2017-09-05T09:30:19.398Z,755
2017-09-05T09:31:19.408Z,885
2017-09-05T09:32:19.409Z,805
2017-09-05T09:33:19.714Z,720
2017-09-05T09:34:19.379Z,690
2017-09-05T09:35:19.368Z,450
2017-09-05T09:36:19.376Z,835
2017-09-05T09:37:19.681Z,940
2017-09-05T09:38:19.377Z,675
2017-09-05T09:39:19.682Z,800
2017-09-05T09:40:19.652Z,830
2017-09-05T09:41:19.332Z,955
2017-09-05T09:42:19.341Z,790
2017-09-05T09:43:19.438Z,915
2017-09-05T09:44:19.630Z,845
2017-09-05T09:45:19.376Z,655
2017-09-05T09:46:19.318Z,690
2017-09-05T09:47:19.818Z,385
2017-09-05T09:48:19.317Z,640
2017-09-05T09:49:19.299Z,735
2017-09-05T09:50:19.298Z,1090
2017-09-05T09:51:19.299Z,1205
2017-09-05T09:52:19.610Z,725
2017-09-05T09:53:19.571Z,695
2017-09-05T09:54:19.383Z,925
2017-09-05T09:55:19.350Z,820
2017-09-05T09:56:19.598Z,920
2017-09-05T09:57:19.225Z,775
2017-09-05T09:58:19.314Z,625
2017-09-05T09:59:19.572Z,475
2017-09-05T10:00:18.907Z,445
2017-09-05T10:01:19.245Z,625
2017-09-05T10:02:19.277Z,565
2017-09-05T10:03:19.514Z,435
2017-09-05T10:04:19.493Z,510
2017-09-05T10:05:19.160Z,460
2017-09-05T10:06:19.499Z,325
2017-09-05T10:07:19.183Z,530
2017-09-05T10:08:19.465Z,520
2017-09-05T10:09:19.167Z,595
2017-09-05T10:10:19.142Z,495
2017-09-05T10:11:19.160Z,360
2017-09-05T10:12:19.140Z,600
2017-09-05T10:13:19.469Z,550
2017-09-05T10:14:19.419Z,765
2017-09-05T10:15:19.347Z,750
2017-09-05T10:16:19.428Z,505
2017-09-05T10:17:19.427Z,355
2017-09-05T10:18:19.416Z,475
2017-09-05T10:19:19.385Z,470
2017-09-05T10:20:19.386Z,455
2017-09-05T10:21:19.381Z,440
2017-09-05T10:22:19.383Z,380
2017-09-05T10:23:19.384Z,370
2017-09-05T10:24:19.368Z,370
2017-09-05T10:25:19.391Z,420
2017-09-05T10:26:19.353Z,405
2017-09-05T10:27:19.326Z,320
2017-09-05T10:28:19.346Z,305
2017-09-05T10:29:19.324Z,260
2017-09-05T10:30:19.368Z,355
2017-09-05T10:31:19.410Z,240
2017-09-05T10:32:19.338Z,190
2017-09-05T10:33:18.976Z,170
2017-09-05T10:34:19.329Z,170
2017-09-05T10:35:19.190Z,170
2017-09-05T10:36:18.989Z,160
2017-09-05T10:37:19.021Z,160
2017-09-05T10:38:18.939Z,160
2017-09-05T10:39:19.235Z,150
2017-09-05T10:40:18.967Z,130
2017-09-05T10:41:19.233Z,120
2017-09-05T10:42:19.225Z,100
2017-09-05T10:43:19.265Z,100
2017-09-05T10:44:19.194Z,95
2017-09-05T10:45:19.202Z,95
2017-09-05T10:46:19.218Z,100
2017-09-05T10:47:19.197Z,110
2017-09-05T10:48:19.171Z,110
2017-09-05T10:49:18.847Z,115
2017-09-05T10:50:19.196Z,125
2017-09-05T10:51:19.139Z,150
2017-09-05T10:52:19.129Z,175
2017-09-05T10:53:19.124Z,210
2017-09-05T10:54:18.821Z,280
2017-09-05T10:55:19.123Z,270
2017-09-05T10:56:19.097Z,250
2017-09-05T10:57:18.757Z,285
2017-09-05T10:58:19.062Z,315
2017-09-05T10:59:18.766Z,285
2017-09-05T11:00:19.069Z,295
2017-09-05T11:01:18.100Z,250
2017-09-05T11:02:19.061Z,220
2017-09-05T11:03:18.719Z,235
2017-09-05T11:04:18.069Z,235
2017-09-05T11:05:18.806Z,295
2017-09-05T11:06:18.683Z,330
2017-09-05T11:07:19.001Z,365
2017-09-05T11:08:18.378Z,375
2017-09-05T11:09:18.978Z,285
2017-09-05T11:10:18.340Z,370
2017-09-05T11:11:18.680Z,400
2017-09-05T11:12:18.978Z,395
2017-09-05T11:13:18.926Z,365
2017-09-05T11:14:18.308Z,280
2017-09-05T11:15:18.688Z,265
2017-09-05T11:16:18.299Z,370
2017-09-05T11:17:18.926Z,345
2017-09-05T11:18:18.898Z,310
2017-09-05T11:19:18.656Z,295
2017-09-05T11:20:18.879Z,310
2017-09-05T11:21:18.569Z,315
2017-09-05T11:22:18.618Z,410
2017-09-05T11:23:18.559Z,390
2017-09-05T11:24:18.895Z,405
2017-09-05T11:25:18.921Z,350
2017-09-05T11:26:18.198Z,310
2017-09-05T11:27:18.827Z,315
2017-09-05T11:28:18.735Z,355
2017-09-05T11:29:18.799Z,280
2017-09-05T11:30:18.795Z,275
2017-09-05T11:31:18.584Z,275
2017-09-05T11:32:18.775Z,285
2017-09-05T11:33:18.776Z,370
2017-09-05T11:34:18.758Z,365
2017-09-05T11:35:18.786Z,355
2017-09-05T11:36:18.758Z,345
2017-09-05T11:37:18.796Z,310
2017-09-05T11:38:18.097Z,315
2017-09-05T11:39:18.404Z,340
2017-09-05T11:40:18.386Z,370
2017-09-05T11:41:18.707Z,335
2017-09-05T11:42:18.719Z,390
2017-09-05T11:43:17.737Z,285
2017-09-05T11:44:18.367Z,265
2017-09-05T11:45:18.349Z,245
2017-09-05T11:46:18.339Z,220
2017-09-05T11:47:18.327Z,210
2017-09-05T11:48:18.349Z,195
2017-09-05T11:49:17.697Z,180
2017-09-05T11:50:18.635Z,170
2017-09-05T11:51:18.009Z,170
2017-09-05T11:52:18.358Z,165
2017-09-05T11:53:18.297Z,160
2017-09-05T11:54:18.609Z,140
2017-09-05T11:55:18.570Z,115
2017-09-05T11:56:18.509Z,100
2017-09-05T11:57:17.624Z,90
2017-09-05T11:58:18.617Z,85
2017-09-05T11:59:18.569Z,80
2017-09-05T12:00:18.080Z,75
2017-09-05T12:01:18.559Z,70
2017-09-05T12:02:18.355Z,65
2017-09-05T12:03:18.186Z,55
2017-09-05T12:04:18.608Z,50
2017-09-05T12:05:17.869Z,50
2017-09-05T12:06:18.491Z,50
2017-09-05T12:07:18.173Z,45
2017-09-05T12:08:18.196Z,45
2017-09-05T12:09:18.136Z,40
2017-09-05T12:10:18.447Z,40
2017-09-05T12:11:18.358Z,45
2017-09-05T12:12:18.107Z,45
2017-09-05T12:13:18.124Z,40
2017-09-05T12:14:18.157Z,40
2017-09-05T12:15:18.388Z,35
2017-09-05T12:16:18.096Z,30
2017-09-05T12:17:18.396Z,30
2017-09-05T12:18:18.434Z,25
2017-09-05T12:19:18.357Z,25
2017-09-05T12:20:18.101Z,25
2017-09-05T12:21:17.950Z,25
2017-09-05T12:22:17.401Z,25
2017-09-05T12:23:18.040Z,25
2017-09-05T12:24:17.996Z,30
2017-09-05T12:25:17.979Z,30
2017-09-05T12:26:18.007Z,30
2017-09-05T12:27:17.659Z,30
2017-09-05T12:28:18.277Z,30
2017-09-05T12:29:17.956Z,30
2017-09-05T12:30:17.931Z,30
2017-09-05T12:31:17.603Z,30
2017-09-05T12:32:17.905Z,35
2017-09-05T12:33:18.207Z,35
2017-09-05T12:34:18.196Z,35
2017-09-05T12:35:17.856Z,35
2017-09-05T12:36:17.947Z,35
2017-09-05T12:37:18.149Z,35
2017-09-05T12:38:18.158Z,35
2017-09-05T12:39:18.146Z,35
2017-09-05T12:40:17.817Z,35
2017-09-05T12:41:17.507Z,35
2017-09-05T12:42:17.867Z,35
2017-09-05T12:43:18.117Z,35
2017-09-05T12:44:17.788Z,40
2017-09-05T12:45:17.770Z,45
2017-09-05T12:46:18.121Z,45
2017-09-05T12:47:18.064Z,50
2017-09-05T12:48:17.738Z,55
2017-09-05T12:49:17.727Z,55
2017-09-05T12:50:18.046Z,60
2017-09-05T12:51:18.037Z,65
2017-09-05T12:52:17.386Z,65
2017-09-05T12:53:17.679Z,75
2017-09-05T12:54:18.007Z,80
2017-09-05T12:55:17.997Z,90
2017-09-05T12:56:17.367Z,95
2017-09-05T12:57:16.721Z,95
2017-09-05T12:58:17.325Z,100
2017-09-05T12:59:17.705Z,105
2017-09-05T13:00:17.307Z,105
2017-09-05T13:01:17.610Z,105
2017-09-05T13:02:17.960Z,105
2017-09-05T13:03:17.935Z,105
2017-09-05T13:04:18.007Z,110
2017-09-05T13:05:17.576Z,100
2017-09-05T13:06:17.617Z,100
2017-09-05T13:07:17.949Z,95
2017-09-05T13:08:17.837Z,85
2017-09-05T13:09:16.947Z,75
2017-09-05T13:10:17.630Z,65
2017-09-05T13:11:17.937Z,60
2017-09-05T13:12:17.969Z,55
2017-09-05T13:13:17.177Z,50
2017-09-05T13:14:17.157Z,45
2017-09-05T13:15:17.798Z,40
2017-09-05T13:16:17.467Z,35
2017-09-05T13:17:17.437Z,30
2017-09-05T13:18:17.425Z,25
2017-09-05T13:19:17.424Z,25
2017-09-05T13:20:17.726Z,20
2017-09-05T13:21:17.727Z,20
2017-09-05T13:22:17.383Z,20
2017-09-05T13:23:17.065Z,20
2017-09-05T13:24:16.745Z,20
2017-09-05T13:25:17.666Z,20
2017-09-05T13:26:17.039Z,15
2017-09-05T13:27:17.351Z,15
2017-09-05T13:28:17.015Z,15
2017-09-05T13:29:17.616Z,15
2017-09-05T13:30:17.325Z,15
2017-09-05T13:31:17.286Z,15
2017-09-05T13:32:17.588Z,20
2017-09-05T13:33:17.286Z,20
2017-09-05T13:34:17.587Z,20
2017-09-05T13:35:16.953Z,25
2017-09-05T13:36:17.548Z,25
2017-09-05T13:37:17.233Z,25
2017-09-05T13:38:17.508Z,30
2017-09-05T13:39:17.553Z,30
2017-09-05T13:40:17.520Z,30
2017-09-05T13:41:16.966Z,30
2017-09-05T13:42:17.518Z,30
2017-09-05T13:43:17.156Z,35
2017-09-05T13:44:17.445Z,35
2017-09-05T13:45:16.822Z,35
2017-09-05T13:46:17.145Z,35
2017-09-05T13:47:17.295Z,30
2017-09-05T13:48:16.585Z,30
2017-09-05T13:49:17.536Z,30
2017-09-05T13:50:17.109Z,30
2017-09-05T13:51:17.248Z,35
2017-09-05T13:52:16.732Z,35
2017-09-05T13:53:17.055Z,35
2017-09-05T13:54:16.742Z,35
2017-09-05T13:55:16.740Z,35
2017-09-05T13:56:17.104Z,35
2017-09-05T13:57:17.006Z,35
2017-09-05T13:58:16.994Z,35
2017-09-05T13:59:16.985Z,40
2017-09-05T14:00:16.971Z,40
2017-09-05T14:01:16.995Z,40
2017-09-05T14:02:16.970Z,45
2017-09-05T14:03:16.961Z,45
2017-09-05T14:04:16.950Z,45
2017-09-05T14:05:16.978Z,45
2017-09-05T14:06:17.223Z,45
2017-09-05T14:07:17.246Z,40
2017-09-05T14:08:16.898Z,40
2017-09-05T14:09:16.936Z,35
2017-09-05T14:10:17.187Z,35
2017-09-05T14:11:17.158Z,40
2017-09-05T14:12:17.216Z,40
2017-09-05T14:13:16.837Z,45
2017-09-05T14:14:17.187Z,45
2017-09-05T14:15:17.135Z,45
2017-09-05T14:16:16.841Z,50